Time;durP1;ratioP1;P1;durP2;ratioP2;P2;SDS_P1;SDS_P2;PMS_P1;PMS_P2;Temp;Humidity;BMP_temperature;BMP_pressure;BME280_temperature;BME280_humidity;BME280_pressure;Samples;Min_cycle;Max_cycle;Signal;HPM_P1;HPM_P2
2022/10/28 00:01:08;;;;;;;9.93;6.10;;;;;;;20.13;58.11;101846.81;4933283;29;20188;-51
2022/10/28 00:03:40;;;;;;;8.20;5.47;;;;;;;20.11;58.09;101832.66;4932057;29;20055;-49
2022/10/28 00:06:16;;;;;;;8.45;5.70;;;;;;;20.12;57.71;101843.28;4932245;29;20062;-48
2022/10/28 00:08:43;;;;;;;9.68;5.90;;;;;;;20.10;57.33;101837.22;4933343;29;20063;-49
2022/10/28 00:11:32;;;;;;;7.97;5.22;;;;;;;20.08;57.64;101838.34;4931431;29;20107;-48
2022/10/28 00:14:03;;;;;;;7.60;5.43;;;;;;;20.09;58.08;101832.78;4927310;29;20064;-50
2022/10/28 00:16:31;;;;;;;8.20;5.50;;;;;;;20.08;57.64;101833.78;4932343;29;20102;-47
2022/10/28 00:18:59;;;;;;;8.63;5.60;;;;;;;20.09;58.24;101835.50;4929523;29;20052;-50
2022/10/28 00:21:28;;;;;;;8.68;5.85;;;;;;;20.08;57.82;101816.81;4931962;29;20051;-51
2022/10/28 00:23:55;;;;;;;8.45;5.32;;;;;;;20.07;58.00;101815.13;4931295;29;20229;-49
2022/10/28 00:26:25;;;;;;;7.97;5.45;;;;;;;20.06;58.30;101811.56;4930667;29;20431;-49
2022/10/28 00:28:54;;;;;;;7.97;5.35;;;;;;;20.05;57.74;101807.16;4930959;29;20560;-50
2022/10/28 00:31:24;;;;;;;7.50;5.63;;;;;;;20.05;58.29;101811.69;4929958;29;20044;-48
2022/10/28 00:33:50;;;;;;;7.95;5.47;;;;;;;20.04;57.71;101805.47;4931028;29;20579;-47
2022/10/28 00:36:25;;;;;;;9.07;5.53;;;;;;;20.04;57.68;101808.16;4930646;29;20051;-48
2022/10/28 00:38:53;;;;;;;8.30;5.50;;;;;;;20.04;57.76;101810.84;4926316;29;20052;-46
2022/10/28 00:41:23;;;;;;;6.63;5.13;;;;;;;20.04;57.85;101810.00;4929716;29;20051;-51
2022/10/28 00:43:52;;;;;;;7.63;5.32;;;;;;;20.03;58.14;101803.78;4932413;29;20066;-50
2022/10/28 00:46:37;;;;;;;8.85;5.40;;;;;;;20.02;58.17;101801.22;4931512;29;20062;-46
2022/10/28 00:49:13;;;;;;;10.07;5.47;;;;;;;20.01;58.15;101803.06;4929824;29;20051;-49
2022/10/28 00:51:41;;;;;;;6.97;5.03;;;;;;;20.02;57.46;101801.22;4932028;29;20343;-47
2022/10/28 00:54:10;;;;;;;8.43;5.20;;;;;;;20.00;57.62;101801.38;4932710;29;20078;-49
2022/10/28 00:56:42;;;;;;;7.70;5.20;;;;;;;20.00;57.51;101798.69;4930427;29;20059;-47
2022/10/28 00:59:26;;;;;;;7.03;4.88;;;;;;;19.99;57.61;101802.38;4929635;29;20412;-47
2022/10/28 01:01:53;;;;;;;9.88;5.95;;;;;;;20.00;57.80;101803.22;4930198;29;20062;-48
2022/10/28 01:04:20;;;;;;;8.32;5.10;;;;;;;19.99;58.12;101798.84;4931051;29;20159;-48
2022/10/28 01:06:47;;;;;;;10.70;5.88;;;;;;;19.98;57.57;101798.00;4933909;29;20055;-49
2022/10/28 01:09:14;;;;;;;8.70;5.88;;;;;;;19.98;58.30;101787.22;4933364;29;20059;-49
2022/10/28 01:12:10;;;;;;;8.52;5.40;;;;;;;19.96;57.89;101798.13;4931644;29;20047;-50
2022/10/28 01:14:45;;;;;;;7.53;5.30;;;;;;;19.97;58.31;101791.72;4927699;29;20063;-47
2022/10/28 01:17:18;;;;;;;8.23;4.90;;;;;;;19.96;57.80;101791.88;4928763;29;20125;-48
2022/10/28 01:19:57;;;;;;;9.13;5.35;;;;;;;19.96;58.39;101791.88;4929592;29;20056;-47
2022/10/28 01:22:57;;;;;;;8.40;5.22;;;;;;;19.94;57.79;101788.50;4931486;29;20051;-46
2022/10/28 01:25:29;;;;;;;6.43;4.47;;;;;;;19.94;57.93;101789.34;4927818;29;20509;-48
2022/10/28 01:28:08;;;;;;;9.65;5.30;;;;;;;19.95;58.41;101792.88;4927588;29;20160;-47
2022/10/28 01:30:57;;;;;;;8.00;4.90;;;;;;;19.94;58.27;101789.34;4932352;29;20431;-47
2022/10/28 01:33:35;;;;;;;7.32;5.03;;;;;;;19.93;57.95;101784.09;4930987;29;20234;-49
2022/10/28 01:36:14;;;;;;;8.23;4.72;;;;;;;19.92;58.04;101771.63;4932669;29;20056;-46
2022/10/28 01:38:40;;;;;;;7.55;4.78;;;;;;;19.93;57.97;101778.72;4934026;29;20054;-47
2022/10/28 01:41:06;;;;;;;8.32;5.38;;;;;;;19.92;58.35;101774.31;4930602;29;20047;-48
2022/10/28 01:43:38;;;;;;;8.13;5.38;;;;;;;19.90;57.81;101771.78;4931962;29;20051;-48
2022/10/28 01:46:15;;;;;;;7.35;4.75;;;;;;;19.89;58.25;101771.91;4932881;29;20055;-48
2022/10/28 01:49:07;;;;;;;7.95;4.97;;;;;;;19.90;57.74;101777.19;4933137;29;20055;-48
2022/10/28 01:51:40;;;;;;;7.07;4.40;;;;;;;19.89;58.09;101770.06;4931987;29;20047;-50
2022/10/28 01:54:09;;;;;;;6.78;4.45;;;;;;;19.89;58.01;101772.75;4933598;29;20093;-48
2022/10/28 01:56:40;;;;;;;6.43;4.60;;;;;;;19.89;58.25;101770.06;4932228;29;20059;-50
2022/10/28 01:59:12;;;;;;;6.20;4.10;;;;;;;19.89;57.86;101769.22;4929106;29;20052;-47
2022/10/28 02:01:38;;;;;;;8.18;5.07;;;;;;;19.88;57.77;101765.69;4929897;29;20047;-47
2022/10/28 02:04:05;;;;;;;8.80;5.25;;;;;;;19.88;57.82;101763.00;4931234;29;20496;-47
2022/10/28 02:06:33;;;;;;;7.80;4.88;;;;;;;19.88;58.30;101757.63;4930297;29;20059;-47
2022/10/28 02:09:18;;;;;;;9.13;5.22;;;;;;;19.87;58.07;101755.09;4930808;29;20055;-47
2022/10/28 02:12:14;;;;;;;7.15;4.97;;;;;;;19.87;57.81;101755.94;4925640;29;20048;-48
2022/10/28 02:15:04;;;;;;;7.15;4.32;;;;;;;19.87;58.24;101752.41;4931143;29;20051;-48
2022/10/28 02:17:57;;;;;;;6.68;4.53;;;;;;;19.86;57.75;101753.38;4930387;29;20193;-49
2022/10/28 02:20:47;;;;;;;6.32;4.57;;;;;;;19.85;58.23;101751.66;4930890;29;20293;-46
2022/10/28 02:23:32;;;;;;;7.45;4.85;;;;;;;19.85;57.88;101751.66;4934599;29;20416;-46
2022/10/28 02:26:19;;;;;;;7.47;5.03;;;;;;;19.85;57.70;101743.59;4932970;29;20432;-46
2022/10/28 02:29:07;;;;;;;7.43;4.70;;;;;;;19.83;58.57;101737.53;4933798;29;20075;-46
2022/10/28 02:31:39;;;;;;;6.72;4.05;;;;;;;19.84;58.09;101731.16;4933232;29;20051;-46
2022/10/28 02:34:12;;;;;;;8.65;4.65;;;;;;;19.84;57.94;101736.53;4934313;29;20048;-46
2022/10/28 02:36:43;;;;;;;7.20;4.90;;;;;;;19.83;58.61;101748.28;4934842;29;20383;-49
2022/10/28 02:39:10;;;;;;;8.20;4.72;;;;;;;19.83;58.11;101748.28;4934720;29;20063;-48
2022/10/28 02:41:52;;;;;;;8.85;4.97;;;;;;;19.81;58.01;101755.66;4935872;29;20047;-46
2022/10/28 02:44:38;;;;;;;6.65;4.35;;;;;;;19.81;58.33;101756.50;4934678;29;20749;-47
2022/10/28 02:47:12;;;;;;;6.65;4.30;;;;;;;19.82;57.64;101757.34;4935154;29;20043;-47
2022/10/28 02:49:41;;;;;;;;;;;;;;;19.81;57.82;101745.72;4934357;29;20114;-48
2022/10/28 02:52:09;;;;;;;8.63;4.70;;;;;;;19.83;57.94;101743.75;4933508;29;19922;-47
2022/10/28 02:54:51;;;;;;;6.57;4.30;;;;;;;19.81;58.39;101744.88;4936259;29;20067;-46
2022/10/28 02:57:31;;;;;;;7.15;4.78;;;;;;;19.80;58.57;101738.66;4935367;29;20086;-47
2022/10/28 03:00:01;;;;;;;7.88;5.05;;;;;;;19.81;58.34;101731.44;4932835;29;20450;-47
2022/10/28 03:02:27;;;;;;;7.15;4.82;;;;;;;19.79;57.91;101734.28;4934629;29;20051;-47
2022/10/28 03:04:54;;;;;;;6.88;4.57;;;;;;;19.79;57.95;101738.81;4933585;29;20051;-47
2022/10/28 03:07:21;;;;;;;7.22;4.53;;;;;;;19.80;57.68;101737.81;4935543;29;20106;-46
2022/10/28 03:09:47;;;;;;;7.25;4.28;;;;;;;19.80;58.00;101744.03;4935708;29;20572;-47
2022/10/28 03:12:14;;;;;;;6.90;4.60;;;;;;;19.79;58.09;101742.34;4949718;29;20474;-47
2022/10/28 03:14:41;;;;;;;5.95;4.25;;;;;;;19.78;58.03;101750.53;4934692;29;20055;-49
2022/10/28 03:17:08;;;;;;;7.35;4.22;;;;;;;19.77;58.14;101749.69;4934077;29;20415;-48
2022/10/28 03:19:34;;;;;;;7.40;4.50;;;;;;;19.77;57.80;101740.78;4932632;29;20063;-49
2022/10/28 03:22:01;;;;;;;5.97;3.97;;;;;;;19.76;58.54;101731.03;4933881;29;20047;-47
2022/10/28 03:24:27;;;;;;;5.50;4.20;;;;;;;19.77;58.23;101735.41;4933596;29;20384;-48
2022/10/28 03:26:53;;;;;;;6.07;3.88;;;;;;;19.76;57.71;101737.25;4931087;29;20417;-47
2022/10/28 03:29:20;;;;;;;5.82;4.22;;;;;;;19.76;57.80;101726.47;4933857;29;20068;-48
2022/10/28 03:31:46;;;;;;;5.35;3.78;;;;;;;19.76;58.40;101723.78;4935078;29;20475;-48
2022/10/28 03:34:13;;;;;;;5.05;3.90;;;;;;;19.76;58.27;101720.25;4936053;29;20316;-45
2022/10/28 03:36:39;;;;;;;7.70;4.75;;;;;;;19.76;57.94;101720.25;4935874;29;20059;-45
2022/10/28 03:39:06;;;;;;;6.93;4.72;;;;;;;19.75;58.01;101714.03;4933623;29;20335;-47
2022/10/28 03:41:32;;;;;;;6.15;4.25;;;;;;;19.74;57.75;101709.66;4929627;29;20103;-46
2022/10/28 03:43:59;;;;;;;7.03;4.70;;;;;;;19.74;58.53;101712.34;4932475;29;20051;-46
2022/10/28 03:46:26;;;;;;;7.95;4.03;;;;;;;19.73;57.98;101708.78;4935251;29;20051;-47
2022/10/28 03:48:55;;;;;;;6.43;4.28;;;;;;;19.73;57.96;101705.25;4935168;29;20404;-46
2022/10/28 03:51:21;;;;;;;8.98;4.47;;;;;;;19.73;58.29;101703.41;4935217;29;20363;-47
2022/10/28 03:53:48;;;;;;;6.38;3.65;;;;;;;19.73;58.13;101707.94;4933394;29;20439;-46
2022/10/28 03:56:14;;;;;;;6.78;4.10;;;;;;;19.73;58.45;101710.63;4934442;29;20340;-48
2022/10/28 03:58:41;;;;;;;6.63;4.10;;;;;;;19.74;57.86;101712.34;4932827;29;20067;-47
2022/10/28 04:01:07;;;;;;;5.72;4.10;;;;;;;19.71;58.55;101713.47;4931052;29;20102;-48
2022/10/28 04:03:34;;;;;;;5.93;4.28;;;;;;;19.72;58.39;101714.31;4928738;29;20044;-47
2022/10/28 04:06:01;;;;;;;5.93;4.20;;;;;;;19.73;58.05;101716.00;4932874;29;20209;-47
2022/10/28 04:08:27;;;;;;;5.53;3.70;;;;;;;19.71;58.21;101716.16;4932853;29;20048;-48
2022/10/28 04:10:54;;;;;;;6.15;4.18;;;;;;;19.72;58.13;101714.31;4932566;29;20073;-47
2022/10/28 04:13:20;;;;;;;5.35;3.78;;;;;;;19.71;57.84;101713.47;4933589;29;20051;-49
2022/10/28 04:15:47;;;;;;;6.28;4.68;;;;;;;19.70;58.16;101714.47;4932853;29;20059;-49
2022/10/28 04:18:13;;;;;;;6.15;3.92;;;;;;;19.71;58.51;101710.78;4934363;29;20047;-47
2022/10/28 04:20:40;;;;;;;7.00;4.45;;;;;;;19.69;57.95;101714.59;4928526;29;20376;-47
2022/10/28 04:23:07;;;;;;;7.03;4.30;;;;;;;19.69;57.94;101712.75;4929069;29;20052;-47
2022/10/28 04:25:34;;;;;;;7.25;4.45;;;;;;;19.68;58.45;101699.47;4932162;29;20056;-48
2022/10/28 04:28:00;;;;;;;7.70;4.30;;;;;;;19.68;58.46;101703.00;4934415;29;20048;-46
2022/10/28 04:30:27;;;;;;;5.97;3.88;;;;;;;19.68;58.37;101694.06;4934072;29;20107;-46
2022/10/28 04:32:53;;;;;;;6.28;4.38;;;;;;;19.68;58.57;101696.78;4933621;29;20340;-49
2022/10/28 04:35:20;;;;;;;6.22;4.78;;;;;;;19.67;58.53;101700.47;4933635;29;20062;-46
2022/10/28 04:37:46;;;;;;;9.70;4.72;;;;;;;19.66;57.89;101702.31;4935639;29;20052;-47
2022/10/28 04:40:13;;;;;;;7.05;4.43;;;;;;;19.67;58.07;101704.00;4933083;29;20388;-46
2022/10/28 04:42:39;;;;;;;9.10;4.00;;;;;;;19.65;57.96;101695.19;4932181;29;20055;-46
2022/10/28 04:45:07;;;;;;;6.32;3.75;;;;;;;19.66;58.33;101699.63;4934816;29;20063;-50
2022/10/28 04:47:33;;;;;;;7.25;4.55;;;;;;;19.66;58.08;101698.78;4934704;29;20055;-46
2022/10/28 04:50:00;;;;;;;6.55;3.70;;;;;;;19.66;57.86;101702.31;4934232;29;20062;-47
2022/10/28 04:52:27;;;;;;;8.30;4.22;;;;;;;19.66;58.29;101702.31;4934401;29;20044;-47
2022/10/28 04:54:54;;;;;;;5.78;4.28;;;;;;;19.65;58.31;101700.59;4933535;29;20055;-47
2022/10/28 04:57:20;;;;;;;7.53;3.67;;;;;;;19.65;57.82;101700.59;4934386;29;20047;-47
2022/10/28 04:59:47;;;;;;;5.93;4.13;;;;;;;19.66;58.07;101699.63;4932807;29;20422;-47
2022/10/28 05:02:13;;;;;;;6.35;3.85;;;;;;;19.65;58.45;101697.91;4933193;29;20050;-48
2022/10/28 05:04:40;;;;;;;8.57;3.92;;;;;;;19.66;58.35;101693.38;4932731;29;20047;-46
2022/10/28 05:07:07;;;;;;;7.72;4.22;;;;;;;19.65;57.95;101689.81;4936212;29;20054;-47
2022/10/28 05:09:33;;;;;;;5.97;3.60;;;;;;;19.65;57.99;101687.13;4931569;29;20055;-50
2022/10/28 05:12:00;;;;;;;8.48;4.50;;;;;;;19.65;58.17;101688.97;4932190;29;20070;-50
2022/10/28 05:14:26;;;;;;;6.47;4.28;;;;;;;19.65;58.18;101689.81;4933380;29;20111;-50
2022/10/28 05:16:53;;;;;;;8.63;4.20;;;;;;;19.65;57.97;101687.13;4930809;29;20102;-47
2022/10/28 05:19:19;;;;;;;6.30;3.75;;;;;;;19.65;57.93;101689.81;4933618;29;20055;-48
2022/10/28 05:21:45;;;;;;;6.00;3.72;;;;;;;19.65;58.02;101694.34;4931542;29;20063;-49
2022/10/28 05:24:12;;;;;;;5.90;3.85;;;;;;;19.64;58.21;101701.59;4931576;29;20055;-50
2022/10/28 05:26:38;;;;;;;8.55;4.35;;;;;;;19.63;58.68;101688.28;4933203;29;20047;-49
2022/10/28 05:29:05;;;;;;;6.05;3.60;;;;;;;19.62;58.41;101684.75;4934168;29;20058;-48
2022/10/28 05:31:31;;;;;;;5.97;3.95;;;;;;;19.64;58.44;101685.44;4934133;28;20315;-50
2022/10/28 05:33:58;;;;;;;5.35;3.53;;;;;;;19.63;58.38;101686.44;4932210;29;20091;-47
2022/10/28 05:36:24;;;;;;;10.23;4.10;;;;;;;19.63;57.98;101690.97;4933949;29;20059;-47
2022/10/28 05:38:51;;;;;;;5.50;4.00;;;;;;;19.63;58.35;101680.22;4933242;29;20435;-47
2022/10/28 05:41:17;;;;;;;6.15;3.83;;;;;;;19.63;58.01;101688.28;4933281;29;20054;-47
2022/10/28 05:43:44;;;;;;;5.93;3.58;;;;;;;19.62;57.72;101679.38;4932677;29;20059;-46
2022/10/28 05:46:10;;;;;;;5.35;3.60;;;;;;;19.61;57.95;101683.03;4931445;29;20415;-48
2022/10/28 05:48:37;;;;;;;6.03;3.80;;;;;;;19.61;58.32;101680.34;4930078;29;20055;-46
2022/10/28 05:51:03;;;;;;;6.57;3.50;;;;;;;19.62;57.91;101673.16;4930594;29;20047;-50
2022/10/28 05:53:30;;;;;;;6.70;3.83;;;;;;;19.61;58.50;101683.03;4919347;29;20431;-48
2022/10/28 05:55:56;;;;;;;6.63;3.70;;;;;;;19.61;58.16;101687.53;4931051;29;20052;-50
2022/10/28 05:58:23;;;;;;;7.40;3.80;;;;;;;19.61;58.60;101685.72;4929279;29;20054;-47
2022/10/28 06:00:49;;;;;;;8.02;3.60;;;;;;;19.59;58.26;101682.31;4930869;29;20062;-50
2022/10/28 06:03:16;;;;;;;4.40;3.28;;;;;;;19.61;57.73;101679.47;4932278;29;20206;-47
2022/10/28 06:05:44;;;;;;;7.25;4.30;;;;;;;19.60;58.02;101684.00;4930061;29;20062;-47
2022/10/28 06:08:12;;;;;;;7.35;4.05;;;;;;;19.60;58.31;101689.38;4934105;29;20070;-50
2022/10/28 06:10:39;;;;;;;6.45;3.88;;;;;;;19.59;58.15;101685.00;4932722;29;20060;-47
2022/10/28 06:13:07;;;;;;;6.10;3.60;;;;;;;19.60;58.23;101678.63;4933924;29;20109;-46
2022/10/28 06:15:34;;;;;;;6.00;3.90;;;;;;;19.59;57.96;101681.47;4932481;29;20424;-47
2022/10/28 06:18:00;;;;;;;5.13;3.35;;;;;;;19.59;58.43;101678.78;4930882;28;20055;-47
2022/10/28 06:20:27;;;;;;;6.47;3.38;;;;;;;19.58;57.94;101675.25;4930453;29;20048;-46
2022/10/28 06:22:55;;;;;;;7.43;4.25;;;;;;;19.59;58.05;101671.56;4933318;29;20050;-46
2022/10/28 06:25:24;;;;;;;4.15;3.10;;;;;;;19.59;58.33;101673.41;4932306;29;20062;-49
2022/10/28 06:27:55;;;;;;;8.02;3.70;;;;;;;19.59;57.73;101670.72;4930784;29;20055;-50
2022/10/28 06:30:24;;;;;;;5.78;3.70;;;;;;;19.57;58.47;101678.91;4930712;29;20048;-47
2022/10/28 06:32:50;;;;;;;5.68;3.53;;;;;;;19.59;58.46;101686.84;4932471;29;20047;-48
2022/10/28 06:35:18;;;;;;;6.15;3.95;;;;;;;19.59;57.79;101692.22;4930937;29;20059;-48
2022/10/28 06:37:46;;;;;;;5.70;3.65;;;;;;;19.57;58.52;101692.34;4930447;29;20063;-47
2022/10/28 06:40:12;;;;;;;9.48;3.88;;;;;;;19.58;57.79;101691.38;4929053;29;20048;-47
2022/10/28 06:42:39;;;;;;;5.32;3.28;;;;;;;19.58;58.51;101695.88;4933100;29;20338;-51
2022/10/28 06:45:06;;;;;;;5.95;3.53;;;;;;;19.58;58.41;101686.00;4930084;29;20048;-50
2022/10/28 06:47:32;;;;;;;6.80;3.70;;;;;;;19.57;58.49;101681.59;4932412;29;20057;-46
2022/10/28 06:50:04;;;;;;;5.53;3.80;;;;;;;19.57;58.23;101683.44;4931560;29;20142;-49
2022/10/28 06:52:31;;;;;;;4.22;3.30;;;;;;;19.57;57.99;101683.44;4928872;29;20486;-47
2022/10/28 06:54:57;;;;;;;5.47;3.42;;;;;;;19.57;58.51;101678.91;4932783;29;20158;-48
2022/10/28 06:57:24;;;;;;;6.13;3.50;;;;;;;19.57;58.42;101683.44;4932757;29;20075;-49
2022/10/28 06:59:54;;;;;;;5.85;3.60;;;;;;;19.57;57.80;101678.91;4931656;29;20332;-51
2022/10/28 07:02:21;;;;;;;8.82;3.40;;;;;;;19.58;58.16;101686.00;4931806;29;20060;-47
2022/10/28 07:04:47;;;;;;;7.93;3.20;;;;;;;19.58;58.46;101694.06;4931118;29;20052;-50
2022/10/28 07:07:14;;;;;;;5.28;3.65;;;;;;;19.57;58.37;101691.50;4935065;29;20106;-50
2022/10/28 07:09:42;;;;;;;7.95;3.90;;;;;;;19.58;58.00;101691.38;4933785;29;20450;-49
2022/10/28 07:12:09;;;;;;;6.20;3.70;;;;;;;19.58;58.21;101688.69;4934393;29;20055;-47
2022/10/28 07:14:35;;;;;;;8.50;3.92;;;;;;;19.59;57.86;101698.44;4933852;29;20438;-46
2022/10/28 07:17:02;;;;;;;5.90;3.50;;;;;;;19.60;57.87;101694.75;4935379;29;20060;-48
2022/10/28 07:19:28;;;;;;;4.78;3.25;;;;;;;19.61;57.97;101703.69;4935709;29;20071;-47
2022/10/28 07:21:55;;;;;;;3.92;2.97;;;;;;;19.60;58.37;101705.50;4934027;29;20055;-50
2022/10/28 07:24:21;;;;;;;6.60;3.47;;;;;;;19.59;57.96;101709.22;4937016;29;20052;-47
2022/10/28 07:26:48;;;;;;;5.25;3.33;;;;;;;19.61;57.97;101701.84;4935327;29;20522;-46
2022/10/28 07:29:19;;;;;;;7.68;3.58;;;;;;;19.63;57.59;101701.75;4933256;29;20047;-47
2022/10/28 07:31:46;;;;;;;6.82;3.65;;;;;;;19.63;58.46;101710.66;4933872;29;20107;-51
2022/10/28 07:34:12;;;;;;;6.82;3.67;;;;;;;19.64;58.56;101711.50;4936776;29;20435;-48
2022/10/28 07:36:39;;;;;;;5.82;3.63;;;;;;;19.63;58.32;101718.72;4934829;29;20413;-48
2022/10/28 07:39:05;;;;;;;4.43;3.55;;;;;;;19.63;58.14;101716.03;4934449;29;20063;-47
2022/10/28 07:41:32;;;;;;;6.35;3.60;;;;;;;19.65;58.38;101723.94;4932766;29;20059;-50
2022/10/28 07:43:59;;;;;;;5.90;3.80;;;;;;;19.65;57.86;101734.69;4930635;29;20343;-47
2022/10/28 07:46:25;;;;;;;5.82;3.55;;;;;;;19.65;57.88;101730.16;4933034;29;20436;-46
2022/10/28 07:48:52;;;;;;;5.50;3.40;;;;;;;19.66;58.31;101721.13;4936502;29;20056;-48
2022/10/28 07:51:18;;;;;;;6.05;3.05;;;;;;;19.67;57.75;101721.97;4934739;29;20044;-49
2022/10/28 07:53:45;;;;;;;6.35;3.47;;;;;;;19.68;58.45;101723.66;4932139;29;20461;-48
2022/10/28 07:56:12;;;;;;;4.90;3.10;;;;;;;19.69;57.55;101717.28;4935237;29;20052;-47
2022/10/28 07:58:41;;;;;;;5.88;3.33;;;;;;;19.69;58.03;101723.50;4933349;29;20055;-48
2022/10/28 08:01:09;;;;;;;5.30;3.70;;;;;;;19.70;58.32;101722.53;4933859;29;20081;-46
2022/10/28 08:03:36;;;;;;;5.57;3.50;;;;;;;19.73;58.20;101716.00;4936153;29;20051;-46
2022/10/28 08:06:10;;;;;;;7.43;4.22;;;;;;;19.73;58.44;101724.91;4934154;29;20059;-47
2022/10/28 08:08:37;;;;;;;8.20;3.45;;;;;;;19.75;58.14;101732.03;4933214;29;20052;-51
2022/10/28 08:11:22;;;;;;;8.70;3.67;;;;;;;19.76;58.06;101728.34;4934679;29;20047;-48
2022/10/28 08:13:50;;;;;;;5.28;3.42;;;;;;;19.79;58.08;101725.38;4935971;29;20059;-49
2022/10/28 08:16:17;;;;;;;5.53;3.10;;;;;;;19.78;58.23;101727.22;4935396;28;20424;-50
2022/10/28 08:18:44;;;;;;;6.68;3.08;;;;;;;19.80;58.07;101727.91;4935377;29;20055;-47
2022/10/28 08:21:12;;;;;;;5.18;3.17;;;;;;;19.82;57.56;101730.44;4934395;29;20066;-49
2022/10/28 08:23:40;;;;;;;9.15;3.70;;;;;;;19.82;57.46;101728.63;4935391;29;20051;-47
2022/10/28 08:26:07;;;;;;;8.82;3.60;;;;;;;19.83;58.23;101727.63;4934301;29;20059;-45
2022/10/28 08:28:33;;;;;;;8.02;3.88;;;;;;;19.84;57.96;101734.69;4935907;29;20055;-51
2022/10/28 08:31:02;;;;;;;5.65;3.50;;;;;;;19.84;57.59;101729.31;4936518;29;20355;-46
2022/10/28 08:33:41;;;;;;;8.07;3.80;;;;;;;19.86;57.82;101734.53;4935509;29;20051;-50
2022/10/28 08:36:14;;;;;;;6.22;3.70;;;;;;;19.86;57.40;101731.84;4933804;29;20138;-49
2022/10/28 08:38:45;;;;;;;9.40;3.72;;;;;;;19.88;57.82;101722.63;4935109;29;20055;-49
2022/10/28 08:41:45;;;;;;;5.38;3.28;;;;;;;19.88;57.54;101730.72;4935050;29;20067;-50
2022/10/28 08:44:42;;;;;;;6.22;3.30;;;;;;;19.89;57.91;101732.41;4933752;29;20897;-50
2022/10/28 08:47:33;;;;;;;5.57;3.75;;;;;;;19.92;58.04;101740.19;4934675;29;20054;-50
2022/10/28 08:50:32;;;;;;;8.80;3.30;;;;;;;19.92;57.39;101725.91;4934326;29;20400;-49
2022/10/28 08:53:11;;;;;;;6.05;3.38;;;;;;;19.94;57.93;101719.38;4930543;29;20063;-50
2022/10/28 08:55:42;;;;;;;5.72;3.40;;;;;;;19.96;57.52;101728.16;4935082;29;20071;-47
2022/10/28 08:58:26;;;;;;;7.88;3.65;;;;;;;19.97;57.89;101712.84;4934817;29;20048;-47
2022/10/28 09:00:55;;;;;;;8.48;4.03;;;;;;;19.99;57.41;101721.63;4934390;29;20062;-48
2022/10/28 09:03:29;;;;;;;7.70;3.55;;;;;;;19.99;58.15;101718.09;4935634;29;20048;-49
2022/10/28 09:06:05;;;;;;;5.00;3.30;;;;;;;20.00;57.79;101709.88;4933591;29;20058;-48
2022/10/28 09:08:44;;;;;;;7.95;3.55;;;;;;;20.00;57.99;101712.56;4934622;29;20055;-47
2022/10/28 09:11:23;;;;;;;5.15;3.40;;;;;;;20.01;58.01;101703.50;4933754;29;20055;-49
2022/10/28 09:14:04;;;;;;;5.88;3.78;;;;;;;20.03;57.58;101706.06;4934309;29;20055;-48
2022/10/28 09:16:48;;;;;;;8.00;3.67;;;;;;;20.04;57.90;101700.50;4932916;29;20362;-48
2022/10/28 09:19:27;;;;;;;9.82;3.67;;;;;;;20.04;57.66;101703.22;4931576;29;20447;-48
2022/10/28 09:22:21;;;;;;;8.27;3.83;;;;;;;20.04;57.46;101711.28;4932653;29;20059;-49
2022/10/28 09:24:52;;;;;;;;;;;;;;;20.06;57.37;101724.56;4934974;29;20071;-49
2022/10/28 09:27:56;;;;;;;6.90;2.90;;;;;;;20.08;57.35;101714.53;4933365;29;19923;-47
2022/10/28 09:31:03;;;;;;;7.60;3.47;;;;;;;20.08;57.49;101712.69;4935880;29;20058;-50
2022/10/28 09:33:50;;;;;;;5.63;3.00;;;;;;;20.09;57.38;101706.28;4934377;29;20339;-47
2022/10/28 09:36:39;;;;;;;5.50;3.38;;;;;;;20.09;57.01;101709.00;4934651;29;20058;-48
2022/10/28 09:39:15;;;;;;;4.68;2.97;;;;;;;20.11;57.63;101709.72;4934638;29;20048;-47
2022/10/28 09:41:44;;;;;;;5.75;3.10;;;;;;;20.13;57.55;101713.09;4932895;29;20143;-46
2022/10/28 09:44:29;;;;;;;6.65;3.38;;;;;;;20.15;57.14;101715.66;4934234;29;20132;-47
2022/10/28 09:46:59;;;;;;;5.90;2.80;;;;;;;20.18;57.64;101718.91;4934599;29;20560;-49
2022/10/28 09:49:35;;;;;;;6.72;3.33;;;;;;;20.19;57.28;101723.28;4935346;29;20053;-49
2022/10/28 09:52:11;;;;;;;6.47;3.40;;;;;;;20.23;57.06;101717.63;4932899;29;20059;-46
2022/10/28 09:54:47;;;;;;;5.95;2.95;;;;;;;20.26;57.40;101717.28;4934462;29;20052;-49
2022/10/28 09:57:14;;;;;;;3.90;2.80;;;;;;;20.28;57.50;101715.31;4932665;29;20047;-46
2022/10/28 09:59:43;;;;;;;5.32;3.22;;;;;;;20.31;57.28;101715.03;4933336;29;20114;-48
2022/10/28 10:02:27;;;;;;;5.68;2.95;;;;;;;20.32;57.19;101706.78;4933542;29;20078;-46
2022/10/28 10:04:55;;;;;;;5.20;2.88;;;;;;;20.37;57.11;101714.44;4932598;29;20102;-48
2022/10/28 10:07:59;;;;;;;5.78;2.72;;;;;;;20.38;57.42;101714.28;4933321;29;20044;-49
2022/10/28 10:10:30;;;;;;;4.57;2.80;;;;;;;20.41;57.39;101713.97;4933343;29;20058;-50
2022/10/28 10:13:01;;;;;;;5.68;2.92;;;;;;;20.42;57.12;101702.22;4933230;29;20047;-49
2022/10/28 10:15:36;;;;;;;8.63;3.35;;;;;;;20.44;57.39;101711.00;4933266;29;20097;-49
2022/10/28 10:18:05;;;;;;;8.68;2.70;;;;;;;20.46;57.48;101708.13;4929853;29;20087;-48
2022/10/28 10:21:01;;;;;;;4.93;2.88;;;;;;;20.46;57.57;101706.31;4927771;29;20059;-50
2022/10/28 10:23:32;;;;;;;8.07;3.17;;;;;;;20.48;56.86;101695.41;4932556;29;20832;-47
2022/10/28 10:26:08;;;;;;;7.32;2.80;;;;;;;20.50;57.40;101697.97;4931800;29;20044;-49
2022/10/28 10:28:43;;;;;;;5.50;2.88;;;;;;;20.51;56.93;101700.53;4933647;29;20130;-49
2022/10/28 10:31:19;;;;;;;4.68;3.00;;;;;;;20.53;56.92;101684.19;4931894;29;20040;-49
2022/10/28 10:33:49;;;;;;;7.63;3.40;;;;;;;20.53;57.43;101687.75;4930547;29;20047;-51
2022/10/28 10:36:20;;;;;;;5.25;2.80;;;;;;;20.55;57.47;101684.91;4930802;29;20059;-49
2022/10/28 10:38:58;;;;;;;5.20;2.75;;;;;;;20.56;57.42;101694.69;4930572;29;20058;-50
2022/10/28 10:41:42;;;;;;;4.47;2.63;;;;;;;20.56;56.75;101706.28;4934916;29;20059;-48
2022/10/28 10:44:21;;;;;;;6.88;3.50;;;;;;;20.58;57.05;101712.41;4936059;29;20046;-48
2022/10/28 10:46:53;;;;;;;7.82;2.83;;;;;;;20.59;56.71;101707.84;4948747;28;20055;-51
2022/10/28 10:49:20;;;;;;;9.10;3.10;;;;;;;20.60;56.78;101704.16;4935614;29;20044;-48
2022/10/28 10:51:51;;;;;;;7.13;2.88;;;;;;;20.60;57.22;101707.69;4934805;29;20063;-48
2022/10/28 10:54:18;;;;;;;9.65;2.60;;;;;;;20.61;56.92;101700.47;4934079;29;20351;-47
2022/10/28 10:56:45;;;;;;;5.30;2.90;;;;;;;20.62;57.10;101703.03;4936910;29;20062;-47
2022/10/28 10:59:27;;;;;;;6.10;2.53;;;;;;;20.61;56.86;101695.91;4936301;29;20052;-50
2022/10/28 11:01:56;;;;;;;5.18;2.70;;;;;;;20.62;56.70;101696.75;4933116;29;20616;-49
2022/10/28 11:04:26;;;;;;;8.20;2.60;;;;;;;20.63;57.37;101696.63;4936910;29;20040;-49
2022/10/28 11:06:56;;;;;;;5.22;3.00;;;;;;;20.63;57.43;101715.47;4934017;29;20051;-49
2022/10/28 11:09:50;;;;;;;6.60;2.83;;;;;;;20.63;56.93;101712.78;4934151;29;20043;-47
2022/10/28 11:12:29;;;;;;;6.18;2.60;;;;;;;20.64;56.72;101710.94;4933519;29;20063;-48
2022/10/28 11:15:00;;;;;;;5.20;2.65;;;;;;;20.65;57.14;101718.03;4932480;29;20047;-48
2022/10/28 11:17:30;;;;;;;6.20;2.83;;;;;;;20.65;57.02;101712.63;4936883;29;20127;-49
2022/10/28 11:20:23;;;;;;;6.57;2.88;;;;;;;20.65;57.09;101712.63;4937072;29;20334;-51
2022/10/28 11:23:02;;;;;;;6.50;3.17;;;;;;;20.67;56.86;101718.72;4934173;29;20103;-48
2022/10/28 11:25:33;;;;;;;4.20;2.50;;;;;;;20.67;56.99;101722.28;4936265;29;20054;-48
2022/10/28 11:28:17;;;;;;;5.53;2.90;;;;;;;20.67;56.73;101713.34;4936208;29;20059;-48
2022/10/28 11:31:18;;;;;;;6.03;2.60;;;;;;;20.67;56.73;101707.97;4935872;29;20063;-50
2022/10/28 11:34:07;;;;;;;5.03;2.70;;;;;;;20.68;57.00;101713.19;4935753;29;20059;-49
2022/10/28 11:36:40;;;;;;;6.28;2.70;;;;;;;20.68;56.80;101715.88;4935726;29;20051;-46
2022/10/28 11:39:18;;;;;;;8.57;3.17;;;;;;;20.69;56.99;101722.09;4936570;29;20054;-47
2022/10/28 11:42:04;;;;;;;8.23;3.25;;;;;;;20.69;57.01;101722.09;4935106;29;20062;-48
2022/10/28 11:44:30;;;;;;;7.20;2.83;;;;;;;20.71;57.38;101725.50;4935216;29;20039;-49
2022/10/28 11:47:18;;;;;;;9.73;2.95;;;;;;;20.69;57.19;101733.72;4935316;29;20748;-47
2022/10/28 11:49:45;;;;;;;4.97;2.80;;;;;;;20.71;56.91;101730.91;4935117;29;20056;-46